Terminal Aerodrome Forecast
Issued by NWS

Home | Current Version | Previous Version | Text Only | Print | Product List | Glossary On
Versions: 1 2 3 4 5 6 7 8 9 10 11 12 13
000
FTUS45 KABQ 060537
TAFAEG
TAF
KAEG 060537Z 0606/0706 26007KT P6SM VCSH BKN060 BKN100
     FM060900 32006KT P6SM BKN100
     FM061500 28006KT P6SM SCT060 SCT150
     FM062100 32006KT P6SM VCTS BKN070CB BKN150
     FM070300 16012KT P6SM VCTS BKN050CB BKN090=

USA.gov is the U.S. government's official web portal to all federal, state and local government web resources and services.